Time;durP1;ratioP1;P1;durP2;ratioP2;P2;SDS_P1;SDS_P2;PMS_P1;PMS_P2;Temp;Humidity;BMP_temperature;BMP_pressure;BME280_temperature;BME280_humidity;BME280_pressure;Samples;Min_cycle;Max_cycle;Signal;HPM_P1;HPM_P2
2021/10/05 00:00:22;;;;;;;;;;;;;;;14.13;89.43;100525.41;1612698;87;20489;-81
2021/10/05 00:02:48;;;;;;;;;;;;;;;14.09;89.56;100524.92;1644605;85;20174;-84
2021/10/05 00:05:13;;;;;;;;;;;;;;;14.11;89.55;100522.10;1641651;87;21232;-79
2021/10/05 00:07:39;;;;;;;;;;;;;;;14.05;89.75;100518.80;1641045;85;20534;-79
2021/10/05 00:10:06;;;;;;;;;;;;;;;14.07;89.60;100518.12;1639970;86;20168;-83
2021/10/05 00:12:31;;;;;;;;;;;;;;;13.99;89.91;100510.48;1641124;85;20901;-80
2021/10/05 00:14:57;;;;;;;;;;;;;;;14.02;89.83;100520.47;1639667;86;20193;-81
2021/10/05 00:17:22;;;;;;;;;;;;;;;13.99;89.83;100517.12;1638519;85;21994;-79
2021/10/05 00:19:48;;;;;;;;;;;;;;;13.99;89.80;100515.80;1643271;86;20190;-79
2021/10/05 00:22:16;;;;;;;;;;;;;;;13.96;89.79;100512.66;1641372;85;20523;-84
2021/10/05 00:24:42;;;;;;;;;;;;;;;13.93;90.04;100507.69;1641068;86;20968;-78
2021/10/05 00:27:07;;;;;;;;;;;;;;;13.95;90.18;100510.52;1638798;86;20167;-82
2021/10/05 00:29:35;;;;;;;;;;;;;;;13.96;89.95;100510.83;1640677;85;22021;-81
2021/10/05 00:32:00;;;;;;;;;;;;;;;13.99;89.89;100511.81;1643828;85;20215;-80
2021/10/05 00:34:26;;;;;;;;;;;;;;;14.04;89.57;100510.48;1638093;85;20200;-87
2021/10/05 00:36:53;;;;;;;;;;;;;;;14.05;89.44;100511.65;1642799;85;20266;-80
2021/10/05 00:39:19;;;;;;;;;;;;;;;13.99;89.38;100510.48;1641210;85;20190;-79
2021/10/05 00:41:45;;;;;;;;;;;;;;;13.97;89.32;100509.02;1640789;85;21162;-81
2021/10/05 00:44:11;;;;;;;;;;;;;;;14.02;89.10;100509.33;1641212;85;20254;-80
2021/10/05 00:46:36;;;;;;;;;;;;;;;13.99;89.35;100517.12;1646335;85;20260;-78
2021/10/05 00:49:02;;;;;;;;;;;;;;;14.00;89.16;100507.36;1645513;85;20427;-79
2021/10/05 00:51:28;;;;;;;;;;;;;;;13.98;89.11;100518.63;1640659;85;20338;-79
2021/10/05 00:53:54;;;;;;;;;;;;;;;13.93;89.18;100514.33;1651777;85;21255;-80
2021/10/05 00:56:22;;;;;;;;;;;;;;;13.93;89.26;100507.69;1644160;85;20163;-79
2021/10/05 00:58:47;;;;;;;;;;;;;;;13.92;89.37;100516.64;1641557;85;20202;-80
2021/10/05 01:01:15;;;;;;;;;;;;;;;13.93;89.19;100513.82;1645931;86;20165;-80
2021/10/05 01:03:41;;;;;;;;;;;;;;;13.86;89.42;100513.34;1643845;85;20758;-80
2021/10/05 01:06:06;;;;;;;;;;;;;;;13.80;89.73;100509.55;1643021;85;21157;-90
2021/10/05 01:08:32;;;;;;;;;;;;;;;13.72;90.00;100506.89;1639044;86;20311;-79
2021/10/05 01:10:58;;;;;;;;;;;;;;;13.73;90.00;100507.23;1643374;86;20155;-80
2021/10/05 01:13:23;;;;;;;;;;;;;;;13.68;90.15;100501.60;1639047;85;20248;-87
2021/10/05 01:15:50;;;;;;;;;;;;;;;13.67;90.25;100502.59;1614045;86;20226;-86
2021/10/05 01:18:17;;;;;;;;;;;;;;;13.67;90.17;100502.59;1643086;85;21077;-81
2021/10/05 01:21:00;;;;;;;;;;;;;;;13.63;90.09;100505.58;1639323;85;20276;-80
2021/10/05 01:23:26;;;;;;;;;;;;;;;13.63;90.08;100496.28;1647744;85;20143;-81
2021/10/05 01:25:52;;;;;;;;;;;;;;;13.64;89.98;100506.39;1645612;86;20181;-82
2021/10/05 01:28:20;;;;;;;;;;;;;;;13.54;90.37;100501.27;1639756;86;20169;-81
2021/10/05 01:30:46;;;;;;;;;;;;;;;13.51;90.39;100506.91;1639372;86;21168;-85
2021/10/05 01:33:12;;;;;;;;;;;;;;;13.43;90.60;100503.77;1641603;85;21078;-79
2021/10/05 01:35:37;;;;;;;;;;;;;;;13.43;90.72;100498.97;1645900;85;20285;-81
2021/10/05 01:38:03;;;;;;;;;;;;;;;13.39;90.93;100498.95;1646007;85;20149;-80
2021/10/05 01:40:29;;;;;;;;;;;;;;;13.39;90.84;100498.48;1642187;85;20256;-79
2021/10/05 01:42:54;;;;;;;;;;;;;;;13.38;90.86;100492.01;1612234;88;21882;-84
2021/10/05 01:45:20;;;;;;;;;;;;;;;13.37;91.10;100495.64;1594177;88;20323;-80
2021/10/05 01:47:46;;;;;;;;;;;;;;;13.35;91.04;100489.18;1643470;86;20157;-79
2021/10/05 01:50:11;;;;;;;;;;;;;;;13.32;91.20;100486.02;1639058;85;21741;-82
2021/10/05 01:52:37;;;;;;;;;;;;;;;13.31;91.17;100488.32;1635843;85;20168;-84
2021/10/05 01:55:06;;;;;;;;;;;;;;;13.34;91.01;100492.00;1648391;86;21096;-89
2021/10/05 01:57:31;;;;;;;;;;;;;;;13.26;91.15;100493.61;1643251;85;20141;-84
2021/10/05 01:59:57;;;;;;;;;;;;;;;13.25;91.33;100490.65;1644810;85;20153;-80
2021/10/05 02:02:22;;;;;;;;;;;;;;;13.23;91.14;100485.98;1639437;85;20170;-79
2021/10/05 02:04:48;;;;;;;;;;;;;;;13.25;91.22;100489.33;1640903;85;20183;-80
2021/10/05 02:07:14;;;;;;;;;;;;;;;13.20;91.40;100487.64;1642954;85;21193;-88
2021/10/05 02:09:39;;;;;;;;;;;;;;;13.22;91.15;100481.70;1639918;85;20218;-80
2021/10/05 02:12:07;;;;;;;;;;;;;;;13.19;91.19;100479.38;1640151;85;20216;-79
2021/10/05 02:14:33;;;;;;;;;;;;;;;13.18;91.29;100479.54;1648667;85;20119;-79
2021/10/05 02:16:59;;;;;;;;;;;;;;;13.18;91.42;100480.36;1642334;85;20385;-79
2021/10/05 02:19:25;;;;;;;;;;;;;;;13.17;91.23;100480.02;1643380;85;21004;-79
2021/10/05 02:21:51;;;;;;;;;;;;;;;13.13;91.36;100481.83;1646368;85;20197;-83
2021/10/05 02:26:51;;;;;;;;;;;;;;;13.13;91.54;100484.48;1641859;85;20207;-82
2021/10/05 02:29:17;;;;;;;;;;;;;;;13.16;91.33;100485.01;1646466;85;20185;-80
2021/10/05 02:31:46;;;;;;;;;;;;;;;13.17;91.04;100481.34;1646544;85;21002;-80
2021/10/05 02:34:13;;;;;;;;;;;;;;;13.16;90.92;100483.68;1639668;85;20187;-80
2021/10/05 02:36:39;;;;;;;;;;;;;;;13.11;90.99;100481.52;1638106;85;20651;-79
2021/10/05 02:39:07;;;;;;;;;;;;;;;13.08;91.11;100478.35;1639060;85;20490;-81
2021/10/05 02:41:33;;;;;;;;;;;;;;;13.09;90.86;100487.47;1650694;85;20178;-80
2021/10/05 02:43:59;;;;;;;;;;;;;;;13.09;90.95;100487.97;1644665;85;21342;-82
2021/10/05 02:46:24;;;;;;;;;;;;;;;13.09;90.77;100486.65;1640975;85;20157;-79
2021/10/05 02:48:50;;;;;;;;;;;;;;;13.08;90.61;100485.83;1644232;85;20472;-81
2021/10/05 02:51:16;;;;;;;;;;;;;;;13.01;90.87;100481.34;1641397;85;20467;-82
2021/10/05 02:53:42;;;;;;;;;;;;;;;13.00;90.79;100483.14;1642815;85;20155;-89
2021/10/05 02:56:08;;;;;;;;;;;;;;;12.97;90.87;100476.03;1642811;86;21210;-82
2021/10/05 02:58:36;;;;;;;;;;;;;;;12.91;91.14;100481.00;1644400;86;20291;-81
2021/10/05 03:01:03;;;;;;;;;;;;;;;12.90;90.99;100472.70;1641635;87;20526;-85
2021/10/05 03:03:31;;;;;;;;;;;;;;;12.91;90.88;100476.17;1645398;85;20128;-81
2021/10/05 03:05:56;;;;;;;;;;;;;;;12.89;90.96;100465.73;1647416;86;20195;-79
2021/10/05 03:08:25;;;;;;;;;;;;;;;12.89;90.86;100468.38;1640824;85;21157;-81
2021/10/05 03:10:53;;;;;;;;;;;;;;;12.83;90.93;100469.55;1642185;86;20504;-79
2021/10/05 03:13:18;;;;;;;;;;;;;;;12.85;91.07;100468.39;1640594;85;20156;-80
2021/10/05 03:15:44;;;;;;;;;;;;;;;12.85;90.94;100469.72;1649091;86;20157;-81
2021/10/05 03:18:09;;;;;;;;;;;;;;;12.85;90.72;100472.38;1646818;85;20459;-79
2021/10/05 03:20:35;;;;;;;;;;;;;;;12.83;90.83;100473.02;1647653;85;21901;-84
2021/10/05 03:23:00;;;;;;;;;;;;;;;12.83;90.78;100474.34;1648881;85;20184;-79
2021/10/05 03:25:26;;;;;;;;;;;;;;;12.84;90.85;100477.33;1637302;85;20513;-84
2021/10/05 03:27:52;;;;;;;;;;;;;;;12.83;90.66;100482.28;1643349;86;20462;-81
2021/10/05 03:30:18;;;;;;;;;;;;;;;12.80;90.70;100477.31;1648928;85;21078;-84
2021/10/05 03:32:43;;;;;;;;;;;;;;;12.80;90.55;100478.64;1642117;85;21430;-78
2021/10/05 03:35:10;;;;;;;;;;;;;;;12.70;91.01;100480.11;1641699;85;20785;-79
2021/10/05 03:37:36;;;;;;;;;;;;;;;12.71;91.02;100479.64;1636282;85;20171;-79
2021/10/05 03:40:03;;;;;;;;;;;;;;;12.75;90.81;100482.28;1642342;85;20248;-88
2021/10/05 03:42:32;;;;;;;;;;;;;;;12.72;90.68;100477.30;1639279;85;20568;-78
2021/10/05 03:44:59;;;;;;;;;;;;;;;12.66;90.95;100476.63;1643133;86;21002;-79
2021/10/05 03:47:25;;;;;;;;;;;;;;;12.63;91.05;100475.62;1641601;86;20181;-79
2021/10/05 03:49:50;;;;;;;;;;;;;;;12.55;91.20;100471.98;1648265;86;20476;-82
2021/10/05 03:52:18;;;;;;;;;;;;;;;12.51;91.62;100470.63;1644853;85;20223;-81
2021/10/05 03:54:43;;;;;;;;;;;;;;;12.52;91.73;100469.65;1644731;86;20221;-86
2021/10/05 03:57:09;;;;;;;;;;;;;;;12.57;91.49;100467.34;1646665;86;21920;-79
2021/10/05 03:59:35;;;;;;;;;;;;;;;12.55;91.53;100464.03;1643131;85;20184;-82
2021/10/05 04:02:00;;;;;;;;;;;;;;;12.55;91.78;100468.48;1614173;87;20147;-80
2021/10/05 04:04:28;;;;;;;;;;;;;;;12.58;91.81;100470.81;1596121;88;20146;-81
2021/10/05 04:06:54;;;;;;;;;;;;;;;12.59;91.80;100459.73;1642719;85;20918;-80
2021/10/05 04:09:20;;;;;;;;;;;;;;;12.54;91.93;100462.36;1641400;85;21224;-79
2021/10/05 04:11:46;;;;;;;;;;;;;;;12.62;91.81;100466.03;1644777;85;20320;-81
2021/10/05 04:14:13;;;;;;;;;;;;;;;12.66;91.62;100465.55;1641609;86;20154;-79
2021/10/05 04:16:38;;;;;;;;;;;;;;;12.65;91.57;100456.44;1640762;85;20246;-80
2021/10/05 04:19:06;;;;;;;;;;;;;;;12.66;91.34;100451.45;1639208;86;21455;-80
2021/10/05 04:21:32;;;;;;;;;;;;;;;12.68;91.26;100446.84;1647097;85;21103;-81
2021/10/05 04:23:57;;;;;;;;;;;;;;;12.63;91.21;100451.78;1647467;85;20213;-82
2021/10/05 04:26:26;;;;;;;;;;;;;;;12.67;91.05;100461.89;1644974;85;20502;-89
2021/10/05 04:28:53;;;;;;;;;;;;;;;12.66;90.89;100459.41;1645540;85;20491;-80
2021/10/05 04:31:19;;;;;;;;;;;;;;;12.64;90.92;100456.09;1639997;85;20622;-83
2021/10/05 04:33:46;;;;;;;;;;;;;;;12.62;91.03;100458.09;1645954;85;21097;-80
2021/10/05 04:36:12;;;;;;;;;;;;;;;12.59;90.87;100459.73;1644340;85;20229;-85
2021/10/05 04:38:37;;;;;;;;;;;;;;;12.55;91.23;100462.70;1640115;86;20145;-79
2021/10/05 04:41:03;;;;;;;;;;;;;;;12.55;91.43;100461.38;1647898;85;20171;-80
2021/10/05 04:43:33;;;;;;;;;;;;;;;12.53;91.41;100464.67;1627849;86;20490;-80
2021/10/05 04:45:58;;;;;;;;;;;;;;;12.51;91.40;100473.28;1649265;85;20727;-78
2021/10/05 04:48:24;;;;;;;;;;;;;;;12.50;91.56;100473.44;1643994;85;20139;-84
2021/10/05 04:50:49;;;;;;;;;;;;;;;12.50;91.61;100466.31;1638854;86;20181;-79
2021/10/05 04:53:16;;;;;;;;;;;;;;;12.51;91.38;100465.33;1646108;85;20151;-83
2021/10/05 04:55:44;;;;;;;;;;;;;;;12.49;91.50;100463.34;1641269;85;20172;-80
2021/10/05 04:58:10;;;;;;;;;;;;;;;12.50;91.31;100462.34;1642377;86;21176;-79
2021/10/05 05:00:36;;;;;;;;;;;;;;;12.49;91.32;100462.03;1641641;85;20174;-78
2021/10/05 05:03:02;;;;;;;;;;;;;;;12.49;91.29;100459.38;1652091;86;20171;-81
2021/10/05 05:05:27;;;;;;;;;;;;;;;12.52;91.01;100455.08;1651524;85;20428;-80
2021/10/05 05:07:59;;;;;;;;;;;;;;;12.44;91.13;100449.73;1648480;85;20131;-80
2021/10/05 05:10:25;;;;;;;;;;;;;;;12.44;91.23;100455.03;1646221;85;22004;-79
2021/10/05 05:12:52;;;;;;;;;;;;;;;12.41;91.36;100452.70;1637629;85;20927;-88
2021/10/05 05:15:18;;;;;;;;;;;;;;;12.41;91.22;100456.68;1647140;85;20276;-78
2021/10/05 05:17:44;;;;;;;;;;;;;;;12.34;91.47;100457.01;1640241;85;20231;-78
2021/10/05 05:20:10;;;;;;;;;;;;;;;12.30;91.63;100461.77;1645637;85;20192;-82
2021/10/05 05:22:36;;;;;;;;;;;;;;;12.28;91.59;100458.97;1644738;85;21997;-79
2021/10/05 05:25:03;;;;;;;;;;;;;;;12.31;91.47;100463.95;1649789;85;20235;-79
2021/10/05 05:27:29;;;;;;;;;;;;;;;12.32;91.58;100469.56;1641302;85;20172;-80
2021/10/05 05:29:54;;;;;;;;;;;;;;;12.34;91.30;100469.74;1637379;86;20846;-79
2021/10/05 05:32:20;;;;;;;;;;;;;;;12.38;91.08;100470.24;1644263;85;20154;-83
2021/10/05 05:34:45;;;;;;;;;;;;;;;12.38;90.93;100474.22;1635267;86;21279;-79
2021/10/05 05:37:11;;;;;;;;;;;;;;;12.41;90.77;100475.22;1646989;85;20232;-79
2021/10/05 05:39:45;;;;;;;;;;;;;;;12.46;90.42;100475.59;1645414;86;20185;-80
2021/10/05 05:42:04;;;;;;;;;;;;;;;12.40;90.25;100476.23;1638714;86;20205;-80
2021/10/05 05:44:29;;;;;;;;;;;;;;;12.44;90.24;100476.23;1639957;85;20522;-80
2021/10/05 05:46:55;;;;;;;;;;;;;;;12.44;90.21;100475.41;1641054;86;21177;-84
2021/10/05 05:49:20;;;;;;;;;;;;;;;12.47;90.05;100481.70;1642564;86;20183;-78
2021/10/05 05:51:47;;;;;;;;;;;;;;;12.48;90.03;100478.08;1640345;85;20209;-84
2021/10/05 05:54:13;;;;;;;;;;;;;;;12.51;89.68;100473.28;1641260;85;20145;-79
2021/10/05 05:56:40;;;;;;;;;;;;;;;12.53;89.79;100476.59;1640308;85;20193;-82
2021/10/05 05:59:06;;;;;;;;;;;;;;;12.60;89.71;100476.80;1638102;85;21874;-86
2021/10/05 06:01:32;;;;;;;;;;;;;;;12.66;89.58;100473.50;1637500;86;20208;-89
2021/10/05 06:03:57;;;;;;;;;;;;;;;12.71;89.29;100475.66;1642997;85;20597;-81
2021/10/05 06:06:23;;;;;;;;;;;;;;;12.83;89.11;100473.02;1638006;85;20119;-84
2021/10/05 06:08:50;;;;;;;;;;;;;;;12.90;88.62;100473.21;1639099;85;21352;-82
2021/10/05 06:11:18;;;;;;;;;;;;;;;13.00;87.97;100469.07;1635175;85;22022;-87
2021/10/05 06:13:46;;;;;;;;;;;;;;;13.10;87.47;100480.36;1634905;85;20161;-83
2021/10/05 06:16:11;;;;;;;;;;;;;;;13.16;87.00;100481.03;1639555;86;20960;-84
2021/10/05 06:18:39;;;;;;;;;;;;;;;13.16;86.94;100484.16;1639700;85;20173;-82
2021/10/05 06:21:06;;;;;;;;;;;;;;;13.21;86.81;100474.72;1643835;85;20235;-82
2021/10/05 06:23:34;;;;;;;;;;;;;;;13.27;86.62;100469.27;1639905;85;20237;-88
2021/10/05 06:25:59;;;;;;;;;;;;;;;13.33;86.30;100469.08;1639449;85;20765;-80
2021/10/05 06:28:25;;;;;;;;;;;;;;;13.41;86.06;100462.50;1639675;85;20199;-81
2021/10/05 06:30:51;;;;;;;;;;;;;;;13.44;85.62;100460.84;1639134;85;20183;-82
2021/10/05 06:33:17;;;;;;;;;;;;;;;13.46;85.42;100458.84;1640559;85;21091;-85
2021/10/05 06:35:43;;;;;;;;;;;;;;;13.49;85.22;100454.52;1641545;85;21071;-84
2021/10/05 06:38:09;;;;;;;;;;;;;;;13.51;84.92;100457.83;1639323;85;20340;-79
2021/10/05 06:40:35;;;;;;;;;;;;;;;13.56;84.95;100452.84;1644404;86;20118;-81
2021/10/05 06:43:00;;;;;;;;;;;;;;;13.62;84.88;100452.16;1640001;85;20163;-83
2021/10/05 06:45:27;;;;;;;;;;;;;;;13.65;84.77;100447.84;1638605;85;20145;-83
2021/10/05 06:47:53;;;;;;;;;;;;;;;13.65;84.18;100453.15;1635009;85;21277;-80
2021/10/05 06:50:19;;;;;;;;;;;;;;;13.67;84.01;100452.16;1634032;86;20285;-81
2021/10/05 06:52:44;;;;;;;;;;;;;;;13.71;83.89;100450.84;1633483;85;20297;-79
2021/10/05 06:55:10;;;;;;;;;;;;;;;13.77;83.74;100450.16;1628714;85;20581;-80
2021/10/05 06:57:36;;;;;;;;;;;;;;;13.79;83.36;100448.16;1598843;88;20269;-87
2021/10/05 07:00:11;;;;;;;;;;;;;;;13.83;83.21;100444.17;1597092;88;21176;-82
2021/10/05 07:02:33;;;;;;;;;;;;;;;13.85;83.17;100444.83;1595223;89;20513;-80
2021/10/05 07:05:01;;;;;;;;;;;;;;;13.86;83.21;100438.53;1594843;88;20695;-79
2021/10/05 07:07:30;;;;;;;;;;;;;;;13.87;82.74;100446.80;1595332;88;20363;-84
2021/10/05 07:09:56;;;;;;;;;;;;;;;13.86;83.03;100438.53;1590873;89;20220;-87
2021/10/05 07:12:23;;;;;;;;;;;;;;;13.96;83.18;100444.45;1590710;89;21207;-79
2021/10/05 07:14:49;;;;;;;;;;;;;;;14.04;83.25;100435.62;1588984;89;20180;-80
2021/10/05 07:17:16;;;;;;;;;;;;;;;14.07;83.14;100434.47;1590410;89;20179;-82
2021/10/05 07:19:42;;;;;;;;;;;;;;;14.16;83.02;100433.44;1587570;89;20224;-85
2021/10/05 07:22:07;;;;;;;;;;;;;;;14.22;83.16;100431.41;1590894;88;20147;-81
2021/10/05 07:24:33;;;;;;;;;;;;;;;14.30;82.57;100434.53;1586198;88;21190;-81
2021/10/05 07:26:58;;;;;;;;;;;;;;;14.41;82.75;100437.30;1588927;89;20146;-80
2021/10/05 07:29:24;;;;;;;;;;;;;;;14.47;82.16;100437.94;1589363;89;20813;-83
2021/10/05 07:31:50;;;;;;;;;;;;;;;14.51;81.77;100433.91;1587451;89;20134;-81
2021/10/05 07:34:17;;;;;;;;;;;;;;;14.51;80.82;100435.23;1591012;88;20190;-86
2021/10/05 07:36:42;;;;;;;;;;;;;;;14.50;80.30;100438.41;1591635;89;21099;-83
2021/10/05 07:39:08;;;;;;;;;;;;;;;14.58;80.34;100431.41;1587117;89;20468;-86
2021/10/05 07:41:34;;;;;;;;;;;;;;;14.62;79.88;100437.55;1591601;89;20478;-81
2021/10/05 07:43:59;;;;;;;;;;;;;;;14.71;79.59;100432.99;1590458;89;20529;-86
2021/10/05 07:46:25;;;;;;;;;;;;;;;14.76;79.01;100439.11;1590365;89;20160;-80
2021/10/05 07:48:50;;;;;;;;;;;;;;;14.88;78.63;100438.55;1582844;88;21021;-83
2021/10/05 07:51:16;;;;;;;;;;;;;;;15.03;78.59;100443.09;1581964;88;20200;-81
2021/10/05 07:53:43;;;;;;;;;;;;;;;15.12;78.43;100435.84;1584416;88;20187;-82
2021/10/05 07:56:11;;;;;;;;;;;;;;;15.19;78.00;100440.79;1582904;88;20277;-85
2021/10/05 07:58:39;;;;;;;;;;;;;;;15.27;77.66;100448.69;1588085;88;20223;-83
2021/10/05 08:01:06;;;;;;;;;;;;;;;15.38;77.38;100446.10;1582476;88;22009;-84
2021/10/05 08:03:33;;;;;;;;;;;;;;;15.49;77.43;100445.69;1563108;90;20265;-82
2021/10/05 08:06:00;;;;;;;;;;;;;;;15.60;77.16;100444.42;1584512;88;20250;-87
2021/10/05 08:08:26;;;;;;;;;;;;;;;15.48;77.26;100435.22;1582601;88;20240;-84
2021/10/05 08:10:51;;;;;;;;;;;;;;;15.58;76.75;100443.75;1578066;88;20197;-82
2021/10/05 08:13:19;;;;;;;;;;;;;;;15.65;76.87;100436.70;1586153;88;21103;-85
2021/10/05 08:15:46;;;;;;;;;;;;;;;15.74;76.92;100438.27;1586494;88;20227;-81
2021/10/05 08:18:14;;;;;;;;;;;;;;;15.72;76.62;100429.65;1582046;88;20253;-85
2021/10/05 08:20:41;;;;;;;;;;;;;;;15.75;76.25;100433.28;1564400;88;20281;-83
2021/10/05 08:23:06;;;;;;;;;;;;;;;15.83;76.35;100427.03;1579572;88;20159;-82
2021/10/05 08:25:32;;;;;;;;;;;;;;;15.94;76.43;100417.77;1582427;88;21183;-81
2021/10/05 08:27:58;;;;;;;;;;;;;;;15.95;76.24;100410.10;1566159;88;20210;-84
2021/10/05 08:30:23;;;;;;;;;;;;;;;16.03;75.87;100404.66;1562392;89;20163;-84
2021/10/05 08:32:49;;;;;;;;;;;;;;;16.07;75.87;100402.48;1585776;88;21057;-83
2021/10/05 08:35:15;;;;;;;;;;;;;;;16.14;75.29;100404.21;1583088;88;20193;-83
2021/10/05 08:37:42;;;;;;;;;;;;;;;16.12;75.10;100404.88;1583978;88;21164;-85
2021/10/05 08:40:10;;;;;;;;;;;;;;;16.15;74.41;100397.84;1583539;88;20169;-86
2021/10/05 08:42:36;;;;;;;;;;;;;;;16.12;74.31;100402.73;1571029;89;20240;-82
2021/10/05 08:45:02;;;;;;;;;;;;;;;16.15;73.92;100407.17;1579710;90;20276;-87
2021/10/05 08:47:28;;;;;;;;;;;;;;;16.19;73.91;100411.64;1581251;90;20235;-82
2021/10/05 08:49:54;;;;;;;;;;;;;;;16.24;74.04;100409.75;1587779;89;21195;-91
2021/10/05 08:52:21;;;;;;;;;;;;;;;16.33;73.82;100417.95;1591091;88;20179;-85
2021/10/05 08:54:47;;;;;;;;;;;;;;;16.46;74.24;100419.94;1588852;88;20218;-88
2021/10/05 08:57:13;;;;;;;;;;;;;;;16.51;73.95;100416.19;1590708;88;20949;-87
2021/10/05 08:59:38;;;;;;;;;;;;;;;16.58;73.38;100412.26;1588142;90;20218;-85
2021/10/05 09:02:15;;;;;;;;;;;;;;;16.67;73.66;100409.78;1591234;88;21123;-82
2021/10/05 09:04:41;;;;;;;;;;;;;;;16.77;73.24;100404.98;1590424;88;20210;-82
2021/10/05 09:07:24;;;;;;;;;;;;;;;16.73;72.50;100404.22;1584486;88;20182;-82
2021/10/05 09:09:58;;;;;;;;;;;;;;;16.74;72.34;100405.88;1590548;88;20190;-83
2021/10/05 09:12:29;;;;;;;;;;;;;;;16.82;72.53;100395.07;1590435;88;20211;-81
2021/10/05 09:14:55;;;;;;;;;;;;;;;17.01;71.87;100390.95;1588261;88;21099;-82
2021/10/05 09:17:22;;;;;;;;;;;;;;;17.13;70.92;100392.08;1586622;88;20237;-83
2021/10/05 09:19:48;;;;;;;;;;;;;;;17.18;70.50;100392.34;1570240;90;20197;-81
2021/10/05 09:22:18;;;;;;;;;;;;;;;17.32;70.55;100398.58;1590262;88;21051;-83
2021/10/05 09:24:47;;;;;;;;;;;;;;;17.28;69.86;100393.85;1588509;88;20191;-82
2021/10/05 09:27:12;;;;;;;;;;;;;;;17.36;70.09;100389.69;1589827;88;21267;-80
2021/10/05 09:29:38;;;;;;;;;;;;;;;17.47;69.87;100390.47;1588407;88;21004;-82
2021/10/05 09:32:16;;;;;;;;;;;;;;;17.62;69.65;100386.86;1574873;89;20165;-83
2021/10/05 09:34:55;;;;;;;;;;;;;;;17.69;69.55;100387.73;1586333;88;20520;-84
2021/10/05 09:37:25;;;;;;;;;;;;;;;17.75;69.49;100369.58;1591462;88;20683;-84
2021/10/05 09:39:57;;;;;;;;;;;;;;;17.80;69.28;100368.47;1579929;88;21101;-83
2021/10/05 09:42:29;;;;;;;;;;;;;;;17.76;68.52;100375.25;1591322;88;20186;-85
2021/10/05 09:44:59;;;;;;;;;;;;;;;17.82;68.30;100374.45;1588232;88;20255;-87
2021/10/05 09:47:40;;;;;;;;;;;;;;;17.76;68.06;100361.89;1587161;88;20206;-83
2021/10/05 09:50:15;;;;;;;;;;;;;;;17.73;67.42;100370.30;1590053;88;20159;-82
2021/10/05 09:52:44;;;;;;;;;;;;;;;17.83;67.61;100360.05;1586547;88;21290;-83
2021/10/05 09:55:10;;;;;;;;;;;;;;;17.91;67.67;100362.61;1590561;88;20205;-83
2021/10/05 09:57:35;;;;;;;;;;;;;;;17.99;68.17;100366.11;1590098;88;20230;-82
2021/10/05 10:00:01;;;;;;;;;;;;;;;18.00;67.95;100365.10;1587888;88;20559;-85
2021/10/05 10:02:26;;;;;;;;;;;;;;;17.99;67.82;100358.09;1585823;88;20146;-87
2021/10/05 10:04:52;;;;;;;;;;;;;;;18.02;68.25;100345.18;1584855;88;21182;-83
2021/10/05 10:07:17;;;;;;;;;;;;;;;18.03;67.57;100352.67;1585511;88;20522;-86
2021/10/05 10:09:43;;;;;;;;;;;;;;;18.08;67.44;100350.22;1582117;88;20496;-87
2021/10/05 10:12:09;;;;;;;;;;;;;;;18.13;67.19;100350.43;1586219;88;20566;-84
2021/10/05 10:14:34;;;;;;;;;;;;;;;18.12;67.33;100340.78;1571576;89;20212;-86
2021/10/05 10:17:00;;;;;;;;;;;;;;;18.17;67.35;100342.33;1588346;88;21213;-83
2021/10/05 10:19:29;;;;;;;;;;;;;;;18.26;67.22;100350.48;1587464;88;20166;-83
2021/10/05 10:22:10;;;;;;;;;;;;;;;18.39;67.24;100346.19;1587686;88;32820;-86
2021/10/05 10:24:47;;;;;;;;;;;;;;;18.46;67.33;100346.52;1587003;88;20617;-80
2021/10/05 10:27:13;;;;;;;;;;;;;;;18.48;66.98;100342.30;1586661;88;20227;-81
2021/10/05 10:29:38;;;;;;;;;;;;;;;18.52;66.60;100342.70;1588520;88;21172;-82
2021/10/05 10:32:17;;;;;;;;;;;;;;;18.63;66.68;100342.94;1588445;88;20244;-86
2021/10/05 10:34:44;;;;;;;;;;;;;;;18.71;66.56;100345.11;1586103;88;20660;-82
2021/10/05 10:37:17;;;;;;;;;;;;;;;18.84;66.30;100346.44;1587170;88;20184;-85
2021/10/05 10:39:43;;;;;;;;;;;;;;;18.99;66.15;100345.75;1589466;89;20124;-86
2021/10/05 10:42:09;;;;;;;;;;;;;;;19.06;65.83;100347.59;1590375;88;21104;-85
2021/10/05 10:44:40;;;;;;;;;;;;;;;19.11;65.62;100347.30;1586276;88;20225;-82
2021/10/05 10:47:08;;;;;;;;;;;;;;;19.17;65.90;100344.28;1586271;88;20478;-84
2021/10/05 10:49:33;;;;;;;;;;;;;;;19.28;65.51;100349.02;1590265;87;20194;-83
2021/10/05 10:51:59;;;;;;;;;;;;;;;19.38;65.66;100340.55;1591748;88;20202;-86
2021/10/05 10:54:27;;;;;;;;;;;;;;;19.49;65.29;100337.74;1589673;88;21414;-84
2021/10/05 10:57:02;;;;;;;;;;;;;;;19.60;64.45;100329.57;1593746;88;20197;-83
2021/10/05 10:59:29;;;;;;;;;;;;;;;19.64;63.44;100336.98;1590747;88;20174;-84
2021/10/05 11:02:03;;;;;;;;;;;;;;;19.71;63.02;100331.06;1618032;88;20234;-83
2021/10/05 11:04:29;;;;;;;;;;;;;;;19.77;62.91;100319.23;1609270;87;20171;-87
2021/10/05 11:06:57;;;;;;;;;;;;;;;19.83;62.34;100324.56;1608815;87;21918;-84
2021/10/05 11:09:28;;;;;;;;;;;;;;;19.91;61.96;100326.17;1608819;87;20921;-83
2021/10/05 11:11:57;;;;;;;;;;;;;;;20.01;61.95;100323.02;1609000;88;20133;-80
2021/10/05 11:14:30;;;;;;;;;;;;;;;20.14;62.35;100319.47;1608613;88;20134;-81
2021/10/05 11:16:58;;;;;;;;;;;;;;;20.20;62.14;100321.30;1606228;88;20253;-80
2021/10/05 11:19:29;;;;;;;;;;;;;;;20.22;61.54;100320.02;1611210;88;21065;-83
2021/10/05 11:21:55;;;;;;;;;;;;;;;20.33;61.32;100325.22;1610197;88;20227;-82
2021/10/05 11:24:21;;;;;;;;;;;;;;;20.41;61.06;100320.92;1611110;88;20261;-84
2021/10/05 11:26:50;;;;;;;;;;;;;;;20.44;60.89;100312.44;1610461;88;20293;-84
2021/10/05 11:29:27;;;;;;;;;;;;;;;20.48;60.67;100310.67;1606566;87;20214;-83
2021/10/05 11:32:00;;;;;;;;;;;;;;;20.57;60.55;100313.38;1616951;88;21088;-82
2021/10/05 11:34:28;;;;;;;;;;;;;;;20.59;60.35;100303.28;1604794;88;20226;-85
2021/10/05 11:36:53;;;;;;;;;;;;;;;20.58;59.86;100302.97;1603418;88;20452;-85
2021/10/05 11:39:22;;;;;;;;;;;;;;;20.63;59.51;100293.73;1605670;87;20183;-85
2021/10/05 11:41:50;;;;;;;;;;;;;;;20.73;58.90;100299.47;1602127;87;20206;-83
2021/10/05 11:44:20;;;;;;;;;;;;;;;20.79;58.92;100291.87;1576682;89;21155;-84
2021/10/05 11:46:57;;;;;;;;;;;;;;;20.80;58.76;100285.48;1605507;88;20515;-84
2021/10/05 11:49:24;;;;;;;;;;;;;;;20.73;58.55;100287.39;1603116;88;20177;-83
2021/10/05 11:51:51;;;;;;;;;;;;;;;20.81;58.70;100286.30;1609960;88;20531;-83
2021/10/05 11:54:19;;;;;;;;;;;;;;;20.89;58.73;100281.16;1609598;88;20199;-85
2021/10/05 11:56:45;;;;;;;;;;;;;;;20.99;58.54;100273.44;1607807;87;21206;-83
2021/10/05 11:59:22;;;;;;;;;;;;;;;21.04;57.98;100262.84;1609941;87;20234;-82
2021/10/05 12:01:48;;;;;;;;;;;;;;;21.11;57.94;100260.88;1609053;88;20218;-85
2021/10/05 12:04:14;;;;;;;;;;;;;;;21.23;58.15;100268.22;1607675;88;20469;-84
2021/10/05 12:06:41;;;;;;;;;;;;;;;21.32;58.42;100253.45;1609173;87;20521;-84
2021/10/05 12:09:08;;;;;;;;;;;;;;;21.40;58.25;100245.61;1609778;89;21125;-83
2021/10/05 12:11:44;;;;;;;;;;;;;;;21.33;57.52;100244.33;1609598;87;20239;-87
2021/10/05 12:14:10;;;;;;;;;;;;;;;21.34;57.53;100249.47;1608765;87;20610;-83
2021/10/05 12:16:36;;;;;;;;;;;;;;;21.41;57.64;100233.30;1587557;88;20238;-85
2021/10/05 12:19:02;;;;;;;;;;;;;;;21.38;57.41;100244.48;1608324;88;20229;-84
2021/10/05 12:21:28;;;;;;;;;;;;;;;21.39;57.54;100239.39;1611880;88;21312;-84
2021/10/05 12:23:58;;;;;;;;;;;;;;;21.45;57.70;100237.15;1608583;87;20287;-82
2021/10/05 12:26:24;;;;;;;;;;;;;;;21.40;57.39;100247.77;1587055;89;20571;-86
2021/10/05 12:29:04;;;;;;;;;;;;;;;21.53;57.11;100252.17;1606251;88;20130;-84
2021/10/05 12:31:31;;;;;;;;;;;;;;;21.57;57.07;100245.31;1610059;88;20214;-83
2021/10/05 12:33:59;;;;;;;;;;;;;;;21.63;56.91;100246.28;1608834;87;21947;-82
2021/10/05 12:36:24;;;;;;;;;;;;;;;21.51;56.84;100254.28;1606824;87;20202;-82